createdAt,value
2023-03-27T00:01:12.847Z,4.80
2023-03-27T00:04:18.159Z,4.84
2023-03-27T00:07:20.627Z,4.79
2023-03-27T00:10:23.447Z,4.75
2023-03-27T00:13:25.024Z,4.70
2023-03-27T00:16:27.540Z,4.75
2023-03-27T00:19:28.982Z,4.74
2023-03-27T00:22:30.463Z,4.70
2023-03-27T00:25:32.325Z,4.71
2023-03-27T00:28:34.172Z,4.68
2023-03-27T00:31:35.766Z,4.76
2023-03-27T00:34:37.602Z,4.75
2023-03-27T00:37:39.261Z,4.71
2023-03-27T00:40:40.928Z,4.70
2023-03-27T00:43:43.667Z,4.71
2023-03-27T00:46:45.368Z,4.72
2023-03-27T00:49:47.267Z,4.69
2023-03-27T00:52:51.564Z,4.64
2023-03-27T00:55:54.470Z,4.62
2023-03-27T00:58:58.526Z,4.61
2023-03-27T01:02:02.224Z,4.61
2023-03-27T01:05:04.759Z,4.55
2023-03-27T01:08:06.290Z,4.57
2023-03-27T01:11:22.461Z,4.60
2023-03-27T01:14:37.824Z,4.53
2023-03-27T01:17:42.198Z,4.54
2023-03-27T01:21:02.362Z,4.52
2023-03-27T01:24:26.624Z,4.56
2023-03-27T01:27:53.115Z,4.54
2023-03-27T01:31:46.106Z,4.55
2023-03-27T01:35:27.911Z,4.50
2023-03-27T01:38:44.638Z,4.54
2023-03-27T01:42:03.281Z,4.55
2023-03-27T01:45:19.855Z,4.49
2023-03-27T01:48:32.782Z,4.44
2023-03-27T01:51:43.246Z,4.41
2023-03-27T01:54:46.605Z,4.44
2023-03-27T01:57:53.515Z,4.44
2023-03-27T02:00:56.512Z,4.48
2023-03-27T02:03:58.558Z,4.39
2023-03-27T02:07:02.808Z,4.37
2023-03-27T02:10:08.216Z,4.31
2023-03-27T02:13:23.715Z,4.27
2023-03-27T02:16:28.805Z,4.26
2023-03-27T02:19:37.158Z,4.20
2023-03-27T02:22:40.034Z,4.09
2023-03-27T02:25:44.488Z,4.01
2023-03-27T02:28:52.567Z,3.94
2023-03-27T02:32:38.133Z,3.94
2023-03-27T02:35:48.770Z,3.87
2023-03-27T02:39:01.020Z,3.77
2023-03-27T02:42:16.567Z,3.71
2023-03-27T02:45:31.793Z,3.71
2023-03-27T02:48:35.312Z,3.65
2023-03-27T02:51:45.508Z,3.71
2023-03-27T02:54:50.907Z,3.60
2023-03-27T02:57:56.469Z,3.70
2023-03-27T03:00:58.896Z,3.71
2023-03-27T03:04:04.129Z,3.63
2023-03-27T03:07:06.473Z,3.58
2023-03-27T03:10:09.672Z,3.54
2023-03-27T03:13:11.607Z,3.56
2023-03-27T03:16:13.316Z,3.53
2023-03-27T03:19:14.863Z,3.56
2023-03-27T03:22:16.355Z,3.55
2023-03-27T03:25:17.913Z,3.58
2023-03-27T03:28:19.559Z,3.56
2023-03-27T03:31:22.483Z,3.49
2023-03-27T03:34:24.043Z,3.38
2023-03-27T03:37:28.534Z,3.25
2023-03-27T03:40:30.345Z,3.16
2023-03-27T03:43:31.922Z,3.16
2023-03-27T03:46:33.850Z,3.20
2023-03-27T03:49:35.385Z,3.16
2023-03-27T03:52:37.194Z,3.16
2023-03-27T03:55:38.702Z,3.13
2023-03-27T03:58:40.201Z,3.15
2023-03-27T04:01:41.693Z,3.16
2023-03-27T04:04:45.414Z,3.09
2023-03-27T04:07:49.694Z,3.19
2023-03-27T04:10:51.186Z,3.11
2023-03-27T04:13:52.661Z,3.06
2023-03-27T04:16:54.222Z,3.05
2023-03-27T04:19:55.675Z,3.00
2023-03-27T04:23:02.194Z,2.86
2023-03-27T04:26:04.005Z,2.58
2023-03-27T04:29:10.310Z,2.48
2023-03-27T04:32:11.819Z,2.36
2023-03-27T04:35:13.282Z,1.93
2023-03-27T04:38:14.791Z,1.93
2023-03-27T04:41:17.540Z,1.83
2023-03-27T04:44:18.933Z,1.88
2023-03-27T04:47:20.457Z,1.92
2023-03-27T04:50:21.988Z,2.03
2023-03-27T04:53:23.522Z,2.05
2023-03-27T04:56:24.979Z,2.05
2023-03-27T04:59:26.513Z,2.17
2023-03-27T05:02:28.155Z,2.12
2023-03-27T05:05:29.661Z,1.94
2023-03-27T05:08:31.615Z,1.98
2023-03-27T05:11:33.123Z,2.00
2023-03-27T05:14:34.644Z,2.06
2023-03-27T05:17:46.854Z,1.99
2023-03-27T05:20:51.226Z,1.93
2023-03-27T05:23:53.323Z,1.89
2023-03-27T05:26:54.837Z,1.91
2023-03-27T05:29:57.596Z,1.89
2023-03-27T05:32:59.468Z,1.99
2023-03-27T05:36:04.613Z,1.93
2023-03-27T05:39:06.151Z,1.92
2023-03-27T05:42:07.684Z,1.89
2023-03-27T05:45:09.577Z,1.81
2023-03-27T05:48:11.123Z,1.86
2023-03-27T05:51:12.664Z,1.70
2023-03-27T05:54:14.144Z,1.49
2023-03-27T05:57:15.836Z,1.34
2023-03-27T06:00:23.818Z,1.27
2023-03-27T06:03:25.384Z,1.23
2023-03-27T06:06:26.975Z,1.15
2023-03-27T06:09:28.480Z,1.26
2023-03-27T06:12:30.036Z,1.31
2023-03-27T06:15:32.073Z,1.41
2023-03-27T06:18:33.800Z,1.32
2023-03-27T06:21:35.253Z,1.35
2023-03-27T06:24:36.756Z,1.20
2023-03-27T06:27:39.183Z,1.14
2023-03-27T06:30:40.648Z,1.00
2023-03-27T06:33:42.109Z,0.90
2023-03-27T06:36:43.801Z,0.89
2023-03-27T06:39:45.360Z,0.84
2023-03-27T06:43:03.020Z,0.89
2023-03-27T06:46:05.680Z,0.96
2023-03-27T06:49:07.023Z,0.97
2023-03-27T06:52:08.524Z,0.72
2023-03-27T06:55:15.203Z,0.85
2023-03-27T06:58:18.897Z,0.81
2023-03-27T07:01:20.872Z,0.82
2023-03-27T07:04:22.452Z,0.93
2023-03-27T07:07:23.907Z,1.04
2023-03-27T07:10:25.899Z,0.98
2023-03-27T07:13:27.443Z,1.04
2023-03-27T07:16:28.982Z,1.28
2023-03-27T07:19:30.845Z,1.52
2023-03-27T07:22:32.386Z,1.64
2023-03-27T07:25:37.364Z,1.72
2023-03-27T07:28:38.847Z,1.83
2023-03-27T07:31:55.760Z,1.70
2023-03-27T07:34:59.442Z,1.66
2023-03-27T07:38:01.878Z,1.63
2023-03-27T07:41:06.509Z,1.43
2023-03-27T07:44:08.114Z,1.57
2023-03-27T07:47:09.851Z,1.60
2023-03-27T07:50:12.129Z,1.62
2023-03-27T07:53:33.536Z,1.70
2023-03-27T07:56:35.774Z,1.78
2023-03-27T07:59:38.185Z,1.95
2023-03-27T08:02:40.038Z,1.86
2023-03-27T08:05:41.555Z,1.82
2023-03-27T08:08:43.064Z,1.70
2023-03-27T08:11:44.606Z,2.03
2023-03-27T08:14:47.160Z,1.83
2023-03-27T08:17:53.717Z,1.75
2023-03-27T08:20:57.336Z,1.99
2023-03-27T08:24:00.582Z,2.00
2023-03-27T08:27:02.130Z,2.02
2023-03-27T08:30:04.500Z,1.88
2023-03-27T08:33:06.154Z,1.65
2023-03-27T08:36:10.617Z,1.78
2023-03-27T08:39:12.308Z,1.67
2023-03-27T08:42:18.821Z,1.73
2023-03-27T08:45:49.702Z,2.18
2023-03-27T08:49:07.450Z,2.93
2023-03-27T08:52:17.333Z,3.23
2023-03-27T08:55:22.284Z,3.90
2023-03-27T08:58:23.789Z,3.81
2023-03-27T09:01:32.151Z,4.39
2023-03-27T09:04:41.522Z,4.58
2023-03-27T09:08:07.670Z,4.55
2023-03-27T09:11:30.827Z,3.94
2023-03-27T09:15:04.962Z,3.36
2023-03-27T09:18:24.306Z,3.86
2023-03-27T09:21:34.671Z,4.54
2023-03-27T09:24:39.519Z,6.17
2023-03-27T09:27:41.574Z,5.33
2023-03-27T09:30:43.083Z,5.27
2023-03-27T09:33:44.779Z,4.02
2023-03-27T09:36:46.652Z,4.79
2023-03-27T09:39:51.849Z,4.86
2023-03-27T09:42:53.344Z,4.87
2023-03-27T09:45:55.051Z,3.97
2023-03-27T09:49:03.148Z,3.90
2023-03-27T09:52:05.870Z,3.58
2023-03-27T09:55:30.991Z,3.29
2023-03-27T09:58:44.214Z,3.50
2023-03-27T10:01:49.332Z,5.21
2023-03-27T10:05:02.518Z,6.09
2023-03-27T10:08:19.481Z,5.79
2023-03-27T10:11:24.034Z,6.36
2023-03-27T10:14:26.393Z,6.51
2023-03-27T10:17:29.543Z,5.42
2023-03-27T10:20:31.073Z,4.96
2023-03-27T10:23:44.046Z,6.41
2023-03-27T10:26:47.479Z,5.44
2023-03-27T10:29:49.013Z,5.49
2023-03-27T10:32:51.595Z,4.71
2023-03-27T10:35:53.180Z,6.13
2023-03-27T10:39:07.218Z,6.62
2023-03-27T10:42:09.149Z,6.64
2023-03-27T10:45:20.766Z,7.37
2023-03-27T10:48:47.071Z,6.99
2023-03-27T10:51:54.170Z,7.12
2023-03-27T10:55:30.438Z,5.93
2023-03-27T10:58:49.514Z,6.14
2023-03-27T11:01:55.550Z,5.68
2023-03-27T11:05:05.356Z,4.80
2023-03-27T11:08:13.248Z,5.84
2023-03-27T11:11:27.307Z,6.76
2023-03-27T11:14:50.716Z,7.41
2023-03-27T11:18:00.272Z,7.67
2023-03-27T11:21:03.649Z,7.12
2023-03-27T11:24:07.079Z,6.72
2023-03-27T11:27:23.328Z,7.06
2023-03-27T11:30:31.689Z,6.70
2023-03-27T11:33:38.113Z,7.47
2023-03-27T11:37:04.943Z,6.81
2023-03-27T11:40:20.211Z,6.61
2023-03-27T11:43:21.732Z,7.26
2023-03-27T11:46:35.534Z,8.53
2023-03-27T11:49:47.024Z,7.67
2023-03-27T11:53:11.564Z,5.90
2023-03-27T11:56:54.708Z,6.33
2023-03-27T12:00:02.379Z,6.61
2023-03-27T12:03:22.261Z,7.03
2023-03-27T12:06:24.668Z,7.43
2023-03-27T12:09:25.923Z,7.78
2023-03-27T12:12:55.410Z,6.00
2023-03-27T12:16:24.278Z,6.28
2023-03-27T12:19:48.121Z,5.67
2023-03-27T12:22:52.632Z,5.28
2023-03-27T12:26:03.051Z,5.36
2023-03-27T12:29:26.745Z,5.83
2023-03-27T12:32:43.513Z,5.88
2023-03-27T12:35:47.394Z,5.80
2023-03-27T12:38:49.052Z,5.69
2023-03-27T12:41:50.609Z,5.08
2023-03-27T12:45:13.314Z,5.09
2023-03-27T12:48:17.626Z,5.09
2023-03-27T12:51:20.356Z,4.66
2023-03-27T12:54:21.699Z,5.97
2023-03-27T12:57:24.840Z,6.36
2023-03-27T13:00:28.645Z,6.78
2023-03-27T13:03:43.773Z,7.73
2023-03-27T13:07:00.201Z,7.11
2023-03-27T13:10:16.897Z,6.42
2023-03-27T13:14:00.274Z,6.20
2023-03-27T13:17:05.799Z,6.27
2023-03-27T13:20:31.618Z,5.89
2023-03-27T13:23:48.780Z,6.63
2023-03-27T13:26:56.086Z,8.35
2023-03-27T13:29:58.396Z,8.76
2023-03-27T13:33:15.055Z,8.86
2023-03-27T13:36:17.633Z,7.71
2023-03-27T13:39:24.560Z,7.57
2023-03-27T13:42:30.134Z,7.51
2023-03-27T13:45:33.492Z,8.29
2023-03-27T13:48:53.954Z,6.97
2023-03-27T13:52:14.053Z,7.24
2023-03-27T13:55:34.600Z,6.86
2023-03-27T13:58:41.647Z,6.48
2023-03-27T14:02:10.958Z,6.19
2023-03-27T14:05:50.261Z,5.70
2023-03-27T14:08:56.090Z,5.82
2023-03-27T14:12:08.075Z,5.56
2023-03-27T14:15:21.152Z,5.47
2023-03-27T14:18:28.535Z,5.38
2023-03-27T14:21:38.407Z,5.41
2023-03-27T14:24:44.277Z,5.37
2023-03-27T14:27:49.608Z,5.28
2023-03-27T14:30:54.911Z,6.76
2023-03-27T14:34:00.964Z,5.97
2023-03-27T14:37:22.470Z,5.63
2023-03-27T14:40:27.689Z,5.61
2023-03-27T14:43:29.456Z,5.35
2023-03-27T14:46:31.319Z,5.64
2023-03-27T14:49:38.758Z,5.77
2023-03-27T14:52:40.268Z,5.42
2023-03-27T14:55:42.489Z,5.59
2023-03-27T14:58:45.938Z,5.26
2023-03-27T15:01:48.492Z,5.18
2023-03-27T15:04:50.158Z,5.13
2023-03-27T15:07:51.947Z,4.94
2023-03-27T15:10:54.006Z,4.78
2023-03-27T15:13:56.234Z,4.34
2023-03-27T15:16:59.632Z,4.17
2023-03-27T15:20:14.460Z,4.21
2023-03-27T15:23:22.371Z,3.39
2023-03-27T15:26:25.595Z,2.60
2023-03-27T15:29:42.512Z,2.71
2023-03-27T15:32:50.659Z,2.86
2023-03-27T15:35:53.467Z,2.93
2023-03-27T15:38:56.014Z,2.83
2023-03-27T15:42:05.615Z,2.85
2023-03-27T15:45:09.585Z,3.17
2023-03-27T15:48:23.922Z,3.14
2023-03-27T15:51:25.481Z,2.93
2023-03-27T15:54:34.647Z,3.14
2023-03-27T15:57:36.281Z,3.11
2023-03-27T16:00:44.358Z,3.24
2023-03-27T16:03:46.025Z,3.14
2023-03-27T16:06:52.097Z,3.26
2023-03-27T16:09:55.891Z,2.93
2023-03-27T16:13:02.809Z,3.16
2023-03-27T16:16:06.530Z,3.30
2023-03-27T16:19:12.722Z,3.33
2023-03-27T16:22:14.210Z,3.29
2023-03-27T16:25:15.926Z,3.35
2023-03-27T16:28:17.656Z,3.45
2023-03-27T16:31:19.186Z,3.62
2023-03-27T16:34:22.889Z,3.41
2023-03-27T16:37:25.597Z,3.58
2023-03-27T16:40:27.376Z,3.92
2023-03-27T16:43:28.938Z,3.73
2023-03-27T16:46:30.533Z,3.96
2023-03-27T16:49:31.979Z,3.56
2023-03-27T16:52:33.734Z,3.56
2023-03-27T16:55:35.514Z,3.41
2023-03-27T16:58:38.601Z,3.60
2023-03-27T17:01:40.347Z,3.89
2023-03-27T17:04:43.751Z,3.97
2023-03-27T17:07:46.834Z,3.93
2023-03-27T17:10:48.393Z,3.95
2023-03-27T17:13:50.308Z,3.98
2023-03-27T17:16:52.275Z,3.85
2023-03-27T17:19:54.122Z,3.66
2023-03-27T17:22:55.722Z,3.61
2023-03-27T17:26:00.602Z,3.54
2023-03-27T17:29:05.164Z,3.50
2023-03-27T17:32:07.035Z,3.39
2023-03-27T17:35:08.959Z,3.47
2023-03-27T17:38:10.469Z,3.39
2023-03-27T17:41:13.197Z,3.30
2023-03-27T17:44:14.818Z,3.22
2023-03-27T17:47:16.333Z,3.20
2023-03-27T17:50:18.002Z,3.19
2023-03-27T17:53:19.523Z,3.16
2023-03-27T17:56:21.066Z,3.05
2023-03-27T17:59:22.517Z,3.10
2023-03-27T18:02:23.999Z,3.01
2023-03-27T18:05:25.761Z,3.21
2023-03-27T18:08:27.318Z,3.14
2023-03-27T18:11:29.550Z,2.99
2023-03-27T18:14:31.104Z,2.78
2023-03-27T18:17:34.763Z,2.93
2023-03-27T18:20:36.353Z,2.99
2023-03-27T18:23:46.204Z,2.88
2023-03-27T18:26:48.525Z,2.87
2023-03-27T18:29:50.143Z,2.88
2023-03-27T18:32:51.611Z,2.91
2023-03-27T18:35:55.541Z,2.78
2023-03-27T18:38:57.300Z,2.80
2023-03-27T18:42:04.962Z,2.80
2023-03-27T18:45:07.366Z,2.83
2023-03-27T18:48:08.959Z,2.91
2023-03-27T18:51:10.535Z,2.84
2023-03-27T18:54:13.275Z,2.86
2023-03-27T18:57:19.919Z,2.75
2023-03-27T19:00:22.037Z,2.74
2023-03-27T19:03:24.495Z,2.79
2023-03-27T19:06:26.060Z,2.74
2023-03-27T19:09:40.957Z,2.73
2023-03-27T19:12:43.300Z,2.68
2023-03-27T19:15:44.874Z,2.64
2023-03-27T19:18:46.342Z,2.65
2023-03-27T19:21:48.144Z,2.60
2023-03-27T19:24:49.757Z,2.61
2023-03-27T19:27:51.226Z,2.56
2023-03-27T19:30:54.255Z,2.59
2023-03-27T19:33:56.134Z,2.59
2023-03-27T19:36:57.570Z,2.49
2023-03-27T19:40:01.851Z,2.44
2023-03-27T19:43:03.310Z,2.53
2023-03-27T19:46:15.826Z,2.50
2023-03-27T19:49:18.166Z,2.53
2023-03-27T19:52:20.138Z,2.59
2023-03-27T19:55:25.298Z,2.66
2023-03-27T19:58:27.103Z,2.72
2023-03-27T20:01:28.672Z,2.73
2023-03-27T20:04:30.271Z,2.63
2023-03-27T20:07:31.749Z,2.58
2023-03-27T20:10:33.219Z,2.51
2023-03-27T20:13:42.313Z,2.48
2023-03-27T20:16:48.069Z,2.44
2023-03-27T20:19:49.583Z,2.35
2023-03-27T20:22:57.491Z,2.35
2023-03-27T20:26:03.224Z,2.37
2023-03-27T20:29:06.465Z,2.40
2023-03-27T20:32:08.947Z,2.32
2023-03-27T20:35:23.005Z,2.32
2023-03-27T20:38:31.407Z,2.40
2023-03-27T20:41:39.057Z,2.38
2023-03-27T20:44:44.547Z,2.48
2023-03-27T20:47:47.199Z,2.41
2023-03-27T20:50:49.123Z,2.50
2023-03-27T20:53:54.172Z,2.53
2023-03-27T20:56:55.863Z,2.58
2023-03-27T20:59:57.387Z,2.49
2023-03-27T21:02:59.208Z,2.60
2023-03-27T21:06:05.888Z,2.43
2023-03-27T21:09:07.766Z,2.31
2023-03-27T21:12:09.427Z,2.21
2023-03-27T21:15:11.202Z,2.16
2023-03-27T21:18:12.702Z,2.31
2023-03-27T21:21:14.189Z,2.41
2023-03-27T21:24:15.928Z,2.39
2023-03-27T21:27:17.386Z,2.42
2023-03-27T21:30:18.964Z,2.49
2023-03-27T21:33:20.544Z,2.48
2023-03-27T21:36:22.075Z,2.50
2023-03-27T21:39:23.629Z,2.55
2023-03-27T21:42:25.324Z,2.62
2023-03-27T21:45:27.268Z,2.61
2023-03-27T21:48:29.492Z,2.65
2023-03-27T21:51:30.997Z,2.60
2023-03-27T21:54:32.479Z,2.58
2023-03-27T21:57:33.902Z,2.58
2023-03-27T22:00:35.388Z,2.65
2023-03-27T22:03:36.885Z,2.59
2023-03-27T22:06:38.431Z,2.62
2023-03-27T22:09:39.907Z,2.58
2023-03-27T22:12:41.430Z,2.53
2023-03-27T22:15:43.035Z,2.56
2023-03-27T22:18:44.599Z,2.50
2023-03-27T22:21:46.102Z,2.51
2023-03-27T22:24:47.606Z,2.53
2023-03-27T22:27:50.471Z,2.53
2023-03-27T22:30:51.965Z,2.56
2023-03-27T22:33:53.491Z,2.55
2023-03-27T22:36:54.959Z,2.50
2023-03-27T22:39:56.561Z,2.48
2023-03-27T22:42:58.019Z,2.42
2023-03-27T22:46:06.648Z,2.45
2023-03-27T22:49:08.118Z,2.43
2023-03-27T22:55:13.806Z,2.35
2023-03-27T22:58:16.037Z,2.40
2023-03-27T23:01:17.548Z,2.41
2023-03-27T23:04:19.066Z,2.31
2023-03-27T23:07:20.503Z,2.27
2023-03-27T23:10:21.996Z,2.23
2023-03-27T23:13:24.458Z,2.15
2023-03-27T23:16:26.074Z,2.15
2023-03-27T23:19:27.599Z,2.20
2023-03-27T23:22:29.078Z,2.29
2023-03-27T23:25:30.541Z,2.28
2023-03-27T23:28:33.832Z,2.31
2023-03-27T23:31:35.543Z,2.10
2023-03-27T23:34:37.057Z,2.13
2023-03-27T23:37:38.542Z,2.12
2023-03-27T23:40:40.072Z,2.16
2023-03-27T23:43:41.689Z,2.05
2023-03-27T23:46:43.160Z,2.14
2023-03-27T23:49:44.685Z,2.13
2023-03-27T23:52:46.237Z,2.06
2023-03-27T23:55:48.029Z,1.99
2023-03-27T23:58:49.518Z,1.83
